sensor_id;sensor_type;location;lat;lon;timestamp;pressure;altitude;pressure_sealevel;temperature;humidity
35577;BME280;21680;52.400;16.920;2023-01-26T00:01:49;101567.73;;;0.60;94.61
35577;BME280;21680;52.400;16.920;2023-01-26T00:04:15;101570.53;;;0.58;94.81
35577;BME280;21680;52.400;16.920;2023-01-26T00:06:40;101568.09;;;0.60;94.70
35577;BME280;21680;52.400;16.920;2023-01-26T00:09:05;101563.69;;;0.59;94.59
35577;BME280;21680;52.400;16.920;2023-01-26T00:11:31;101564.55;;;0.58;94.57
35577;BME280;21680;52.400;16.920;2023-01-26T00:13:58;101568.59;;;0.58;94.82
35577;BME280;21680;52.400;16.920;2023-01-26T00:16:23;101567.39;;;0.61;94.86
35577;BME280;21680;52.400;16.920;2023-01-26T00:18:49;101567.94;;;0.63;94.87
35577;BME280;21680;52.400;16.920;2023-01-26T00:21:20;101565.13;;;0.63;94.72
35577;BME280;21680;52.400;16.920;2023-01-26T00:23:45;101566.73;;;0.63;94.84
35577;BME280;21680;52.400;16.920;2023-01-26T00:26:14;101563.73;;;0.64;94.97
35577;BME280;21680;52.400;16.920;2023-01-26T00:28:40;101557.62;;;0.68;95.06
35577;BME280;21680;52.400;16.920;2023-01-26T00:31:09;101553.23;;;0.69;94.90
35577;BME280;21680;52.400;16.920;2023-01-26T00:33:35;101544.09;;;0.68;94.83
35577;BME280;21680;52.400;16.920;2023-01-26T00:36:00;101546.17;;;0.66;95.00
35577;BME280;21680;52.400;16.920;2023-01-26T00:38:26;101545.66;;;0.68;95.00
35577;BME280;21680;52.400;16.920;2023-01-26T00:40:52;101544.62;;;0.69;94.91
35577;BME280;21680;52.400;16.920;2023-01-26T00:43:17;101542.34;;;0.70;94.99
35577;BME280;21680;52.400;16.920;2023-01-26T00:45:42;101541.30;;;0.70;94.92
35577;BME280;21680;52.400;16.920;2023-01-26T00:48:08;101542.17;;;0.70;94.90
35577;BME280;21680;52.400;16.920;2023-01-26T00:50:33;101541.80;;;0.69;95.03
35577;BME280;21680;52.400;16.920;2023-01-26T00:52:58;101537.93;;;0.69;95.03
35577;BME280;21680;52.400;16.920;2023-01-26T00:55:24;101548.48;;;0.69;94.88
35577;BME280;21680;52.400;16.920;2023-01-26T00:57:57;101542.88;;;0.70;94.95
35577;BME280;21680;52.400;16.920;2023-01-26T01:00:22;101537.42;;;0.70;95.08
35577;BME280;21680;52.400;16.920;2023-01-26T01:02:48;101539.19;;;0.71;95.12
35577;BME280;21680;52.400;16.920;2023-01-26T01:05:13;101538.65;;;0.71;95.12
35577;BME280;21680;52.400;16.920;2023-01-26T01:07:39;101539.03;;;0.72;95.07
35577;BME280;21680;52.400;16.920;2023-01-26T01:10:04;101539.89;;;0.71;95.08
35577;BME280;21680;52.400;16.920;2023-01-26T01:12:29;101535.11;;;0.68;94.97
35577;BME280;21680;52.400;16.920;2023-01-26T01:14:55;101533.31;;;0.64;94.74
35577;BME280;21680;52.400;16.920;2023-01-26T01:17:20;101533.84;;;0.64;95.03
35577;BME280;21680;52.400;16.920;2023-01-26T01:19:45;101524.01;;;0.66;95.15
35577;BME280;21680;52.400;16.920;2023-01-26T01:22:11;101521.05;;;0.68;95.05
35577;BME280;21680;52.400;16.920;2023-01-26T01:24:36;101517.68;;;0.66;95.12
35577;BME280;21680;52.400;16.920;2023-01-26T01:27:02;101516.45;;;0.66;95.22
35577;BME280;21680;52.400;16.920;2023-01-26T01:29:27;101519.09;;;0.66;95.11
35577;BME280;21680;52.400;16.920;2023-01-26T01:31:53;101517.70;;;0.68;95.14
35577;BME280;21680;52.400;16.920;2023-01-26T01:34:18;101518.58;;;0.68;95.06
35577;BME280;21680;52.400;16.920;2023-01-26T01:36:43;101514.55;;;0.69;95.26
35577;BME280;21680;52.400;16.920;2023-01-26T01:39:09;101511.90;;;0.69;95.07
35577;BME280;21680;52.400;16.920;2023-01-26T01:41:36;101513.85;;;0.71;95.18
35577;BME280;21680;52.400;16.920;2023-01-26T01:49:55;101505.46;;;0.75;95.22
35577;BME280;21680;52.400;16.920;2023-01-26T01:52:23;101505.83;;;0.76;95.42
35577;BME280;21680;52.400;16.920;2023-01-26T01:54:56;101499.48;;;0.76;95.19
35577;BME280;21680;52.400;16.920;2023-01-26T01:57:37;101493.83;;;0.72;95.24
35577;BME280;21680;52.400;16.920;2023-01-26T02:00:13;101491.88;;;0.71;95.07
35577;BME280;21680;52.400;16.920;2023-01-26T02:02:41;101486.95;;;0.70;95.18
35577;BME280;21680;52.400;16.920;2023-01-26T02:05:17;101481.52;;;0.73;95.40
35577;BME280;21680;52.400;16.920;2023-01-26T02:07:46;101472.20;;;0.73;95.28
35577;BME280;21680;52.400;16.920;2023-01-26T02:10:17;101470.98;;;0.74;95.20
35577;BME280;21680;52.400;16.920;2023-01-26T02:12:44;101468.88;;;0.75;95.28
35577;BME280;21680;52.400;16.920;2023-01-26T02:15:10;101466.25;;;0.76;95.44
35577;BME280;21680;52.400;16.920;2023-01-26T02:17:36;101456.04;;;0.76;95.24
35577;BME280;21680;52.400;16.920;2023-01-26T02:28:21;101441.63;;;0.78;95.31
35577;BME280;21680;52.400;16.920;2023-01-26T02:30:47;101443.92;;;0.78;95.47
35577;BME280;21680;52.400;16.920;2023-01-26T02:33:19;101444.82;;;0.80;95.54
35577;BME280;21680;52.400;16.920;2023-01-26T02:35:45;101438.67;;;0.81;95.53
35577;BME280;21680;52.400;16.920;2023-01-26T02:38:10;101438.48;;;0.78;95.28
35577;BME280;21680;52.400;16.920;2023-01-26T02:43:13;101434.27;;;0.80;95.49
35577;BME280;21680;52.400;16.920;2023-01-26T02:45:40;101432.86;;;0.80;95.41
35577;BME280;21680;52.400;16.920;2023-01-26T02:48:06;101425.98;;;0.79;95.45
35577;BME280;21680;52.400;16.920;2023-01-26T02:50:32;101425.45;;;0.78;95.24
35577;BME280;21680;52.400;16.920;2023-01-26T02:52:58;101424.58;;;0.78;95.38
35577;BME280;21680;52.400;16.920;2023-01-26T02:55:24;101428.45;;;0.79;95.52
35577;BME280;21680;52.400;16.920;2023-01-26T02:57:54;101426.88;;;0.80;95.42
35577;BME280;21680;52.400;16.920;2023-01-26T03:00:23;101424.40;;;0.79;95.37
35577;BME280;21680;52.400;16.920;2023-01-26T03:02:51;101424.41;;;0.79;95.43
35577;BME280;21680;52.400;16.920;2023-01-26T03:05:17;101422.64;;;0.79;95.34
35577;BME280;21680;52.400;16.920;2023-01-26T03:07:43;101424.05;;;0.78;95.43
35577;BME280;21680;52.400;16.920;2023-01-26T03:10:10;101420.17;;;0.78;95.38
35577;BME280;21680;52.400;16.920;2023-01-26T03:12:36;101416.48;;;0.79;95.30
35577;BME280;21680;52.400;16.920;2023-01-26T03:15:01;101412.61;;;0.79;95.30
35577;BME280;21680;52.400;16.920;2023-01-26T03:18:07;101412.78;;;0.78;95.33
35577;BME280;21680;52.400;16.920;2023-01-26T03:21:02;101412.23;;;0.75;95.42
35577;BME280;21680;52.400;16.920;2023-01-26T03:23:47;101409.75;;;0.74;95.30
35577;BME280;21680;52.400;16.920;2023-01-26T03:26:31;101408.70;;;0.73;95.40
35577;BME280;21680;52.400;16.920;2023-01-26T03:29:15;101403.09;;;0.75;95.45
35577;BME280;21680;52.400;16.920;2023-01-26T03:31:40;101400.29;;;0.77;95.42
35577;BME280;21680;52.400;16.920;2023-01-26T03:34:06;101399.07;;;0.79;95.54
35577;BME280;21680;52.400;16.920;2023-01-26T03:36:31;101393.64;;;0.81;95.55
35577;BME280;21680;52.400;16.920;2023-01-26T03:38:56;101393.46;;;0.81;95.45
35577;BME280;21680;52.400;16.920;2023-01-26T03:41:22;101392.55;;;0.77;95.46
35577;BME280;21680;52.400;16.920;2023-01-26T03:44:06;101386.20;;;0.76;95.52
35577;BME280;21680;52.400;16.920;2023-01-26T03:46:50;101387.42;;;0.75;95.58
35577;BME280;21680;52.400;16.920;2023-01-26T03:49:34;101377.93;;;0.75;95.52
35577;BME280;21680;52.400;16.920;2023-01-26T03:52:18;101373.17;;;0.75;95.47
35577;BME280;21680;52.400;16.920;2023-01-26T03:55:03;101373.52;;;0.74;95.45
35577;BME280;21680;52.400;16.920;2023-01-26T03:57:47;101380.90;;;0.72;95.45
35577;BME280;21680;52.400;16.920;2023-01-26T04:00:13;101373.50;;;0.72;95.42
35577;BME280;21680;52.400;16.920;2023-01-26T04:02:40;101374.58;;;0.74;95.79
35577;BME280;21680;52.400;16.920;2023-01-26T04:05:25;101372.81;;;0.73;95.65
35577;BME280;21680;52.400;16.920;2023-01-26T04:08:09;101368.38;;;0.69;95.46
35577;BME280;21680;52.400;16.920;2023-01-26T04:10:52;101365.22;;;0.70;95.60
35577;BME280;21680;52.400;16.920;2023-01-26T04:13:19;101361.73;;;0.72;95.55
35577;BME280;21680;52.400;16.920;2023-01-26T04:16:05;101360.85;;;0.72;95.55
35577;BME280;21680;52.400;16.920;2023-01-26T04:18:49;101365.56;;;0.69;95.41
35577;BME280;21680;52.400;16.920;2023-01-26T04:21:33;101362.05;;;0.69;95.65
35577;BME280;21680;52.400;16.920;2023-01-26T04:24:01;101360.81;;;0.69;95.59
35577;BME280;21680;52.400;16.920;2023-01-26T04:26:29;101361.54;;;0.71;95.44
35577;BME280;21680;52.400;16.920;2023-01-26T04:29:06;101358.55;;;0.72;95.64
35577;BME280;21680;52.400;16.920;2023-01-26T04:31:32;101353.30;;;0.74;95.58
35577;BME280;21680;52.400;16.920;2023-01-26T04:33:59;101348.02;;;0.74;95.66
35577;BME280;21680;52.400;16.920;2023-01-26T04:36:25;101344.52;;;0.75;95.59
35577;BME280;21680;52.400;16.920;2023-01-26T04:38:50;101343.29;;;0.76;95.70
35577;BME280;21680;52.400;16.920;2023-01-26T04:41:15;101337.30;;;0.77;95.43
35577;BME280;21680;52.400;16.920;2023-01-26T04:43:41;101335.20;;;0.77;95.58
35577;BME280;21680;52.400;16.920;2023-01-26T04:46:07;101331.70;;;0.78;95.57
35577;BME280;21680;52.400;16.920;2023-01-26T04:48:34;101329.75;;;0.77;95.59
35577;BME280;21680;52.400;16.920;2023-01-26T04:51:08;101335.21;;;0.79;95.63
35577;BME280;21680;52.400;16.920;2023-01-26T04:53:34;101338.75;;;0.80;95.63
35577;BME280;21680;52.400;16.920;2023-01-26T04:55:59;101331.54;;;0.81;95.60
35577;BME280;21680;52.400;16.920;2023-01-26T04:58:25;101328.38;;;0.82;95.79
35577;BME280;21680;52.400;16.920;2023-01-26T05:00:51;101329.96;;;0.82;95.64
35577;BME280;21680;52.400;16.920;2023-01-26T05:03:17;101335.08;;;0.83;95.79
35577;BME280;21680;52.400;16.920;2023-01-26T05:05:44;101335.42;;;0.84;95.80
35577;BME280;21680;52.400;16.920;2023-01-26T05:08:09;101330.51;;;0.84;95.77
35577;BME280;21680;52.400;16.920;2023-01-26T05:10:35;101333.32;;;0.85;95.88
35577;BME280;21680;52.400;16.920;2023-01-26T05:13:00;101336.49;;;0.85;95.69
35577;BME280;21680;52.400;16.920;2023-01-26T05:15:26;101329.80;;;0.86;95.57
35577;BME280;21680;52.400;16.920;2023-01-26T05:17:51;101337.03;;;0.86;95.67
35577;BME280;21680;52.400;16.920;2023-01-26T05:20:17;101335.96;;;0.85;95.64
35577;BME280;21680;52.400;16.920;2023-01-26T05:22:43;101328.73;;;0.83;95.54
35577;BME280;21680;52.400;16.920;2023-01-26T05:25:09;101324.52;;;0.84;95.64
35577;BME280;21680;52.400;16.920;2023-01-26T05:27:35;101319.60;;;0.85;95.70
35577;BME280;21680;52.400;16.920;2023-01-26T05:30:00;101315.73;;;0.84;95.55
35577;BME280;21680;52.400;16.920;2023-01-26T05:32:27;101319.94;;;0.83;95.41
35577;BME280;21680;52.400;16.920;2023-01-26T05:34:52;101331.02;;;0.83;95.70
35577;BME280;21680;52.400;16.920;2023-01-26T05:37:18;101331.38;;;0.84;95.64
35577;BME280;21680;52.400;16.920;2023-01-26T05:39:44;101334.73;;;0.85;95.63
35577;BME280;21680;52.400;16.920;2023-01-26T05:42:12;101324.02;;;0.86;95.64
35577;BME280;21680;52.400;16.920;2023-01-26T05:44:38;101319.77;;;0.85;95.58
35577;BME280;21680;52.400;16.920;2023-01-26T05:47:04;101318.89;;;0.84;95.62
35577;BME280;21680;52.400;16.920;2023-01-26T05:49:30;101314.67;;;0.85;95.66
35577;BME280;21680;52.400;16.920;2023-01-26T05:51:55;101310.64;;;0.86;95.71
35577;BME280;21680;52.400;16.920;2023-01-26T05:54:20;101313.81;;;0.86;95.68
35577;BME280;21680;52.400;16.920;2023-01-26T05:56:46;101311.52;;;0.85;95.75
35577;BME280;21680;52.400;16.920;2023-01-26T05:59:11;101310.63;;;0.84;95.62
35577;BME280;21680;52.400;16.920;2023-01-26T06:01:36;101312.91;;;0.84;95.78
35577;BME280;21680;52.400;16.920;2023-01-26T06:04:01;101317.48;;;0.85;95.83
35577;BME280;21680;52.400;16.920;2023-01-26T06:06:27;101316.27;;;0.86;95.62
35577;BME280;21680;52.400;16.920;2023-01-26T06:08:52;101315.39;;;0.86;95.76
35577;BME280;21680;52.400;16.920;2023-01-26T06:11:17;101311.33;;;0.84;95.57
35577;BME280;21680;52.400;16.920;2023-01-26T06:13:43;101317.84;;;0.84;95.77
35577;BME280;21680;52.400;16.920;2023-01-26T06:16:08;101320.09;;;0.81;95.67
35577;BME280;21680;52.400;16.920;2023-01-26T06:18:34;101316.04;;;0.79;95.69
35577;BME280;21680;52.400;16.920;2023-01-26T06:20:59;101317.10;;;0.79;95.60
35577;BME280;21680;52.400;16.920;2023-01-26T06:23:25;101311.65;;;0.80;95.71
35577;BME280;21680;52.400;16.920;2023-01-26T06:25:51;101311.28;;;0.77;95.72
35577;BME280;21680;52.400;16.920;2023-01-26T06:28:16;101316.73;;;0.79;95.83
35577;BME280;21680;52.400;16.920;2023-01-26T06:30:43;101313.23;;;0.80;95.69
35577;BME280;21680;52.400;16.920;2023-01-26T06:33:09;101314.65;;;0.81;95.82
35577;BME280;21680;52.400;16.920;2023-01-26T06:35:34;101311.66;;;0.82;95.71
35577;BME280;21680;52.400;16.920;2023-01-26T06:38:00;101307.96;;;0.81;95.79
35577;BME280;21680;52.400;16.920;2023-01-26T06:40:26;101309.71;;;0.80;95.69
35577;BME280;21680;52.400;16.920;2023-01-26T06:42:51;101315.34;;;0.79;95.46
35577;BME280;21680;52.400;16.920;2023-01-26T06:45:18;101318.67;;;0.78;95.58
35577;BME280;21680;52.400;16.920;2023-01-26T06:47:49;101314.83;;;0.82;95.85
35577;BME280;21680;52.400;16.920;2023-01-26T06:50:17;101310.80;;;0.84;95.71
35577;BME280;21680;52.400;16.920;2023-01-26T06:52:46;101307.99;;;0.86;95.82
35577;BME280;21680;52.400;16.920;2023-01-26T06:55:18;101312.73;;;0.83;95.63
35577;BME280;21680;52.400;16.920;2023-01-26T06:57:44;101312.54;;;0.82;95.64
35577;BME280;21680;52.400;16.920;2023-01-26T07:00:11;101313.23;;;0.81;95.47
35577;BME280;21680;52.400;16.920;2023-01-26T07:02:36;101315.67;;;0.78;95.46
35577;BME280;21680;52.400;16.920;2023-01-26T07:05:02;101318.48;;;0.75;95.62
35577;BME280;21680;52.400;16.920;2023-01-26T07:07:27;101318.67;;;0.78;95.66
35577;BME280;21680;52.400;16.920;2023-01-26T07:09:53;101318.17;;;0.82;95.74
35577;BME280;21680;52.400;16.920;2023-01-26T07:12:19;101322.23;;;0.84;95.75
35577;BME280;21680;52.400;16.920;2023-01-26T07:14:44;101318.19;;;0.84;95.63
35577;BME280;21680;52.400;16.920;2023-01-26T07:17:09;101316.07;;;0.83;95.56
35577;BME280;21680;52.400;16.920;2023-01-26T07:19:34;101316.77;;;0.82;95.51
35577;BME280;21680;52.400;16.920;2023-01-26T07:22:01;101319.92;;;0.80;95.62
35577;BME280;21680;52.400;16.920;2023-01-26T07:24:27;101318.15;;;0.80;95.55
35577;BME280;21680;52.400;16.920;2023-01-26T07:26:52;101325.57;;;0.83;95.52
35577;BME280;21680;52.400;16.920;2023-01-26T07:29:18;101322.06;;;0.85;95.66
35577;BME280;21680;52.400;16.920;2023-01-26T07:31:43;101319.79;;;0.86;95.63
35577;BME280;21680;52.400;16.920;2023-01-26T07:34:09;101315.56;;;0.85;95.45
35577;BME280;21680;52.400;16.920;2023-01-26T07:36:34;101311.88;;;0.87;95.62
35577;BME280;21680;52.400;16.920;2023-01-26T07:39:00;101312.77;;;0.89;95.60
35577;BME280;21680;52.400;16.920;2023-01-26T07:41:25;101312.77;;;0.89;95.42
35577;BME280;21680;52.400;16.920;2023-01-26T07:43:50;101311.21;;;0.92;95.64
35577;BME280;21680;52.400;16.920;2023-01-26T07:46:16;101318.62;;;0.96;95.78
35577;BME280;21680;52.400;16.920;2023-01-26T07:48:41;101323.20;;;0.97;95.50
35577;BME280;21680;52.400;16.920;2023-01-26T07:51:07;101323.56;;;0.98;95.70
35577;BME280;21680;52.400;16.920;2023-01-26T07:53:34;101323.94;;;1.02;95.67
35577;BME280;21680;52.400;16.920;2023-01-26T07:56:10;101326.25;;;1.05;95.64
35577;BME280;21680;52.400;16.920;2023-01-26T07:58:36;101324.83;;;1.03;95.50
35577;BME280;21680;52.400;16.920;2023-01-26T08:01:05;101326.03;;;0.99;95.47
35577;BME280;21680;52.400;16.920;2023-01-26T08:03:31;101322.48;;;0.93;95.30
35577;BME280;21680;52.400;16.920;2023-01-26T08:05:56;101321.92;;;0.89;95.15
35577;BME280;21680;52.400;16.920;2023-01-26T08:08:22;101323.51;;;0.90;95.34
35577;BME280;21680;52.400;16.920;2023-01-26T08:10:47;101318.60;;;0.93;95.57
35577;BME280;21680;52.400;16.920;2023-01-26T08:13:12;101317.91;;;0.95;95.57
35577;BME280;21680;52.400;16.920;2023-01-26T08:15:37;101318.97;;;0.95;95.48
35577;BME280;21680;52.400;16.920;2023-01-26T08:18:03;101314.05;;;0.96;95.55
35577;BME280;21680;52.400;16.920;2023-01-26T08:20:29;101309.48;;;0.96;95.49
35577;BME280;21680;52.400;16.920;2023-01-26T08:22:55;101305.58;;;0.92;95.29
35577;BME280;21680;52.400;16.920;2023-01-26T08:25:20;101305.54;;;0.86;95.12
35577;BME280;21680;52.400;16.920;2023-01-26T08:27:46;101302.70;;;0.83;95.17
35577;BME280;21680;52.400;16.920;2023-01-26T08:30:11;101306.73;;;0.80;95.03
35577;BME280;21680;52.400;16.920;2023-01-26T08:32:37;101305.13;;;0.79;95.19
35577;BME280;21680;52.400;16.920;2023-01-26T08:35:02;101305.31;;;0.79;95.36
35577;BME280;21680;52.400;16.920;2023-01-26T08:37:28;101303.41;;;0.84;95.29
35577;BME280;21680;52.400;16.920;2023-01-26T08:39:53;101301.52;;;0.90;95.42
35577;BME280;21680;52.400;16.920;2023-01-26T08:42:18;101302.95;;;0.95;95.44
35577;BME280;21680;52.400;16.920;2023-01-26T08:44:44;101301.55;;;0.96;95.36
35577;BME280;21680;52.400;16.920;2023-01-26T08:47:09;101304.90;;;0.97;95.37
35577;BME280;21680;52.400;16.920;2023-01-26T08:49:34;101305.64;;;1.01;95.62
35577;BME280;21680;52.400;16.920;2023-01-26T08:52:00;101305.46;;;1.04;95.50
35577;BME280;21680;52.400;16.920;2023-01-26T08:54:25;101306.90;;;1.06;95.52
35577;BME280;21680;52.400;16.920;2023-01-26T08:56:50;101309.36;;;1.06;95.32
35577;BME280;21680;52.400;16.920;2023-01-26T08:59:15;101315.70;;;1.09;95.52
35577;BME280;21680;52.400;16.920;2023-01-26T09:01:41;101314.86;;;1.13;95.26
35577;BME280;21680;52.400;16.920;2023-01-26T09:04:06;101312.08;;;1.18;95.47
35577;BME280;21680;52.400;16.920;2023-01-26T09:06:31;101312.08;;;1.20;95.40
35577;BME280;21680;52.400;16.920;2023-01-26T09:08:57;101314.00;;;1.19;95.24
35577;BME280;21680;52.400;16.920;2023-01-26T09:11:23;101311.73;;;1.20;95.26
35577;BME280;21680;52.400;16.920;2023-01-26T09:13:49;101320.20;;;1.24;95.42
35577;BME280;21680;52.400;16.920;2023-01-26T09:16:20;101315.30;;;1.30;95.43
35577;BME280;21680;52.400;16.920;2023-01-26T09:18:49;101317.80;;;1.35;95.44
35577;BME280;21680;52.400;16.920;2023-01-26T09:21:15;101318.34;;;1.39;95.40
35577;BME280;21680;52.400;16.920;2023-01-26T09:23:40;101313.73;;;1.34;95.17
35577;BME280;21680;52.400;16.920;2023-01-26T09:26:05;101315.16;;;1.35;95.32
35577;BME280;21680;52.400;16.920;2023-01-26T09:28:31;101314.13;;;1.42;95.40
35577;BME280;21680;52.400;16.920;2023-01-26T09:30:56;101312.39;;;1.46;95.19
35577;BME280;21680;52.400;16.920;2023-01-26T09:33:21;101311.50;;;1.46;95.28
35577;BME280;21680;52.400;16.920;2023-01-26T09:35:48;101313.98;;;1.51;95.43
35577;BME280;21680;52.400;16.920;2023-01-26T09:38:14;101316.46;;;1.53;95.30
35577;BME280;21680;52.400;16.920;2023-01-26T09:49:25;101312.58;;;1.50;95.04
35577;BME280;21680;52.400;16.920;2023-01-26T09:52:05;101319.97;;;1.49;95.07
35577;BME280;21680;52.400;16.920;2023-01-26T09:54:38;101316.45;;;1.51;95.25
35577;BME280;21680;52.400;16.920;2023-01-26T09:57:15;101315.73;;;1.47;94.88
35577;BME280;21680;52.400;16.920;2023-01-26T10:00:36;101313.98;;;1.47;94.95
35577;BME280;21680;52.400;16.920;2023-01-26T10:06:26;101308.52;;;1.51;95.13
35577;BME280;21680;52.400;16.920;2023-01-26T10:08:54;101306.23;;;1.47;95.02
35577;BME280;21680;52.400;16.920;2023-01-26T10:11:27;101306.71;;;1.38;94.77
35577;BME280;21680;52.400;16.920;2023-01-26T10:14:08;101307.93;;;1.37;94.79
35577;BME280;21680;52.400;16.920;2023-01-26T10:16:36;101307.92;;;1.35;94.80
35577;BME280;21680;52.400;16.920;2023-01-26T10:19:04;101309.36;;;1.40;95.10
35577;BME280;21680;52.400;16.920;2023-01-26T10:21:37;101307.61;;;1.42;94.93
35577;BME280;21680;52.400;16.920;2023-01-26T10:24:04;101303.36;;;1.36;94.69
35577;BME280;21680;52.400;16.920;2023-01-26T10:26:32;101295.61;;;1.34;94.84
35577;BME280;21680;52.400;16.920;2023-01-26T10:28:57;101292.63;;;1.39;94.97
35577;BME280;21680;52.400;16.920;2023-01-26T10:31:32;101291.58;;;1.41;94.96
35577;BME280;21680;52.400;16.920;2023-01-26T10:34:20;101293.17;;;1.42;94.78
35577;BME280;21680;52.400;16.920;2023-01-26T10:36:46;101291.05;;;1.38;94.77
35577;BME280;21680;52.400;16.920;2023-01-26T10:39:14;101286.61;;;1.31;94.59
35577;BME280;21680;52.400;16.920;2023-01-26T10:41:58;101285.73;;;1.32;94.83
35577;BME280;21680;52.400;16.920;2023-01-26T10:44:33;101278.85;;;1.29;94.58
35577;BME280;21680;52.400;16.920;2023-01-26T10:47:05;101272.51;;;1.28;94.56
35577;BME280;21680;52.400;16.920;2023-01-26T10:49:31;101273.75;;;1.29;94.75
35577;BME280;21680;52.400;16.920;2023-01-26T10:52:17;101266.35;;;1.29;94.72
35577;BME280;21680;52.400;16.920;2023-01-26T10:54:44;101256.50;;;1.31;94.78
35577;BME280;21680;52.400;16.920;2023-01-26T10:57:29;101256.70;;;1.35;94.61
35577;BME280;21680;52.400;16.920;2023-01-26T10:59:58;101255.83;;;1.39;94.66
35577;BME280;21680;52.400;16.920;2023-01-26T11:02:25;101256.54;;;1.41;94.70
35577;BME280;21680;52.400;16.920;2023-01-26T11:07:28;101250.90;;;1.38;94.31
35577;BME280;21680;52.400;16.920;2023-01-26T11:09:55;101249.31;;;1.37;94.48
35577;BME280;21680;52.400;16.920;2023-01-26T11:12:23;101247.90;;;1.37;94.57
35577;BME280;21680;52.400;16.920;2023-01-26T11:14:59;101242.25;;;1.34;94.33
35577;BME280;21680;52.400;16.920;2023-01-26T11:18:14;101236.44;;;1.34;94.30
35577;BME280;21680;52.400;16.920;2023-01-26T11:21:17;101236.95;;;1.29;94.42
35577;BME280;21680;52.400;16.920;2023-01-26T11:23:38;101235.88;;;1.25;94.15
35577;BME280;21680;52.400;16.920;2023-01-26T11:31:36;101226.54;;;1.22;94.25
35577;BME280;21680;52.400;16.920;2023-01-26T11:36:58;101225.99;;;1.18;94.18
35577;BME280;21680;52.400;16.920;2023-01-26T11:39:53;101223.34;;;1.17;94.33
35577;BME280;21680;52.400;16.920;2023-01-26T11:42:33;101218.95;;;1.17;94.08
35577;BME280;21680;52.400;16.920;2023-01-26T11:47:56;101214.52;;;1.13;94.07
35577;BME280;21680;52.400;16.920;2023-01-26T11:50:39;101210.83;;;1.11;94.00
35577;BME280;21680;52.400;16.920;2023-01-26T11:56:29;101196.02;;;1.04;94.03
35577;BME280;21680;52.400;16.920;2023-01-26T11:59:09;101193.20;;;1.05;94.01
35577;BME280;21680;52.400;16.920;2023-01-26T12:01:51;101189.16;;;1.07;93.97
35577;BME280;21680;52.400;16.920;2023-01-26T12:04:20;101192.33;;;1.06;94.02
35577;BME280;21680;52.400;16.920;2023-01-26T12:06:50;101193.04;;;1.08;94.04
35577;BME280;21680;52.400;16.920;2023-01-26T12:09:29;101192.69;;;1.08;93.89
35577;BME280;21680;52.400;16.920;2023-01-26T12:12:23;101184.59;;;1.08;93.94
35577;BME280;21680;52.400;16.920;2023-01-26T12:15:12;101181.43;;;1.11;93.77
35577;BME280;21680;52.400;16.920;2023-01-26T12:17:58;101174.73;;;1.07;93.79
35577;BME280;21680;52.400;16.920;2023-01-26T12:23:30;101166.27;;;1.05;93.85
35577;BME280;21680;52.400;16.920;2023-01-26T12:26:12;101165.91;;;1.03;93.68
35577;BME280;21680;52.400;16.920;2023-01-26T12:28:47;101168.05;;;1.05;93.75
35577;BME280;21680;52.400;16.920;2023-01-26T12:31:24;101166.10;;;1.04;93.72
35577;BME280;21680;52.400;16.920;2023-01-26T12:33:54;101169.64;;;1.10;94.00
35577;BME280;21680;52.400;16.920;2023-01-26T12:42:15;101173.39;;;1.25;93.94
35577;BME280;21680;52.400;16.920;2023-01-26T12:47:17;101171.11;;;1.32;93.96
35577;BME280;21680;52.400;16.920;2023-01-26T12:52:45;101168.83;;;1.32;93.84
35577;BME280;21680;52.400;16.920;2023-01-26T12:55:27;101166.36;;;1.29;93.63
35577;BME280;21680;52.400;16.920;2023-01-26T12:58:00;101166.69;;;1.22;93.56
35577;BME280;21680;52.400;16.920;2023-01-26T13:00:34;101168.07;;;1.17;93.64
35577;BME280;21680;52.400;16.920;2023-01-26T13:03:13;101167.34;;;1.09;93.45
35577;BME280;21680;52.400;16.920;2023-01-26T13:11:07;101166.10;;;1.05;93.48
35577;BME280;21680;52.400;16.920;2023-01-26T13:13:51;101162.39;;;1.02;93.53
35577;BME280;21680;52.400;16.920;2023-01-26T13:18:56;101160.61;;;0.96;93.54
35577;BME280;21680;52.400;16.920;2023-01-26T13:21:41;101160.06;;;0.92;93.66
35577;BME280;21680;52.400;16.920;2023-01-26T13:26:44;101159.02;;;0.97;93.53
35577;BME280;21680;52.400;16.920;2023-01-26T13:29:36;101162.73;;;0.97;93.66
35577;BME280;21680;52.400;16.920;2023-01-26T13:34:45;101162.54;;;0.93;93.55
35577;BME280;21680;52.400;16.920;2023-01-26T13:37:18;101165.00;;;0.94;93.52
35577;BME280;21680;52.400;16.920;2023-01-26T13:39:59;101163.61;;;0.97;93.69
35577;BME280;21680;52.400;16.920;2023-01-26T13:48:15;101165.16;;;0.91;93.56
35577;BME280;21680;52.400;16.920;2023-01-26T13:50:45;101167.46;;;0.93;93.51
35577;BME280;21680;52.400;16.920;2023-01-26T13:53:39;101168.00;;;0.95;93.68
35577;BME280;21680;52.400;16.920;2023-01-26T13:56:19;101167.10;;;0.90;93.49
35577;BME280;21680;52.400;16.920;2023-01-26T13:58:45;101164.45;;;0.89;93.46
35577;BME280;21680;52.400;16.920;2023-01-26T14:01:12;101163.56;;;0.89;93.46
35577;BME280;21680;52.400;16.920;2023-01-26T14:03:38;101159.35;;;0.89;93.56
35577;BME280;21680;52.400;16.920;2023-01-26T14:06:09;101161.29;;;0.89;93.68
35577;BME280;21680;52.400;16.920;2023-01-26T14:08:37;101161.13;;;0.92;93.57
35577;BME280;21680;52.400;16.920;2023-01-26T14:11:13;101161.65;;;0.95;93.69
35577;BME280;21680;52.400;16.920;2023-01-26T14:13:39;101157.78;;;0.93;93.70
35577;BME280;21680;52.400;16.920;2023-01-26T14:16:06;101161.11;;;0.91;93.62
35577;BME280;21680;52.400;16.920;2023-01-26T14:18:32;101160.58;;;0.89;93.47
35577;BME280;21680;52.400;16.920;2023-01-26T14:21:00;101162.52;;;0.89;93.46
35577;BME280;21680;52.400;16.920;2023-01-26T14:23:32;101167.98;;;0.91;93.68